Time;durP1;ratioP1;P1;durP2;ratioP2;P2;SDS_P1;SDS_P2;PMS_P1;PMS_P2;Temp;Humidity;BMP_temperature;BMP_pressure;BME280_temperature;BME280_humidity;BME280_pressure;Samples;Min_cycle;Max_cycle;Signal;HPM_P1;HPM_P2
2022/06/24 00:00:10;;;;;;;2.30;1.40;;;;;;;25.70;39.59;100541.14;1801993;79;21033;-79
2022/06/24 00:02:38;;;;;;;2.62;1.30;;;;;;;25.71;39.61;100542.18;1800742;79;21076;-79
2022/06/24 00:05:10;;;;;;;3.12;1.40;;;;;;;25.70;39.62;100544.73;1797962;79;21052;-79
2022/06/24 00:07:51;;;;;;;1.98;1.20;;;;;;;25.70;39.65;100546.70;1798157;79;20986;-79
2022/06/24 00:10:22;;;;;;;1.62;1.40;;;;;;;25.71;39.65;100548.33;1797967;79;21267;-78
2022/06/24 00:12:49;;;;;;;1.62;1.35;;;;;;;25.71;39.64;100555.30;1797761;79;20902;-79
2022/06/24 00:15:19;;;;;;;2.67;1.40;;;;;;;25.70;39.65;100551.70;1797898;79;21080;-79
2022/06/24 00:17:46;;;;;;;2.22;1.20;;;;;;;25.70;39.65;100548.91;1801508;79;21459;-81
2022/06/24 00:20:17;;;;;;;3.40;1.40;;;;;;;25.66;39.65;100544.41;1797808;79;21053;-79
2022/06/24 00:22:46;;;;;;;4.03;1.65;;;;;;;25.70;39.66;100550.89;1797947;79;22459;-79
2022/06/24 00:25:17;;;;;;;1.80;1.20;;;;;;;25.69;39.69;100550.08;1797588;79;20984;-79
2022/06/24 00:27:59;;;;;;;1.60;1.17;;;;;;;25.70;39.71;100551.70;1798071;79;21242;-79
2022/06/24 00:30:25;;;;;;;2.70;1.57;;;;;;;25.69;39.74;100548.68;1798964;79;21064;-79
2022/06/24 00:32:52;;;;;;;2.95;1.30;;;;;;;25.69;39.73;100548.68;1797917;79;21013;-79
2022/06/24 00:35:18;;;;;;;1.75;1.35;;;;;;;25.70;39.73;100555.06;1798017;79;22118;-79
2022/06/24 00:37:46;;;;;;;1.85;1.20;;;;;;;25.69;39.73;100552.86;1797732;79;21025;-78
2022/06/24 00:40:18;;;;;;;1.80;1.30;;;;;;;25.70;39.74;100555.06;1798099;79;21017;-79
2022/06/24 00:42:46;;;;;;;2.02;1.20;;;;;;;25.70;39.75;100551.70;1798092;79;21037;-79
2022/06/24 00:45:39;;;;;;;2.72;1.57;;;;;;;25.70;39.76;100549.50;1797809;79;21088;-79
2022/06/24 00:48:13;;;;;;;2.17;1.30;;;;;;;25.69;39.74;100544.50;1797820;79;21031;-79
2022/06/24 00:50:47;;;;;;;2.72;1.50;;;;;;;25.70;39.78;100552.28;1797606;79;21044;-80
2022/06/24 00:53:14;;;;;;;2.70;1.60;;;;;;;25.70;39.78;100553.67;1798124;79;21034;-79
2022/06/24 00:55:44;;;;;;;2.87;1.35;;;;;;;25.69;39.78;100555.65;1798046;79;21533;-79
2022/06/24 00:58:17;;;;;;;2.17;1.40;;;;;;;25.69;39.81;100560.41;1798064;79;21115;-79
2022/06/24 01:00:45;;;;;;;3.83;1.60;;;;;;;25.68;39.81;100551.81;1797697;79;21968;-79
2022/06/24 01:03:14;;;;;;;1.72;1.45;;;;;;;25.68;39.82;100550.42;1797802;79;21076;-79
2022/06/24 01:05:41;;;;;;;1.82;1.55;;;;;;;25.68;39.83;100544.85;1797340;79;21056;-79
2022/06/24 01:08:10;;;;;;;2.67;1.50;;;;;;;25.68;39.85;100542.06;1797707;79;21562;-79
2022/06/24 01:10:37;;;;;;;2.62;1.52;;;;;;;25.68;39.87;100542.88;1797863;79;21064;-79
2022/06/24 01:13:11;;;;;;;3.98;1.50;;;;;;;25.68;39.86;100542.88;1801443;79;21169;-79
2022/06/24 01:15:38;;;;;;;4.90;1.50;;;;;;;25.69;39.85;100538.12;1801725;79;21002;-79
2022/06/24 01:18:05;;;;;;;3.05;1.47;;;;;;;25.68;39.88;100537.88;1797587;79;20993;-79
2022/06/24 01:20:31;;;;;;;2.87;1.72;;;;;;;25.68;39.91;100537.88;1798219;79;20972;-78
2022/06/24 01:22:58;;;;;;;2.50;1.50;;;;;;;25.67;39.89;100539.89;1797880;79;21076;-79
2022/06/24 01:25:24;;;;;;;2.67;1.50;;;;;;;25.68;39.91;100543.45;1797229;79;21381;-79
2022/06/24 01:27:50;;;;;;;2.22;1.50;;;;;;;25.68;39.91;100540.09;1797957;79;21151;-79
2022/06/24 01:30:17;;;;;;;2.05;1.50;;;;;;;25.68;39.93;100539.28;1797581;79;21622;-79
2022/06/24 01:32:43;;;;;;;1.98;1.40;;;;;;;25.69;39.93;100543.69;1797559;79;21044;-78
2022/06/24 01:35:09;;;;;;;2.17;1.50;;;;;;;25.68;39.93;100535.91;1797767;79;21029;-79
2022/06/24 01:37:42;;;;;;;2.58;1.50;;;;;;;25.70;39.93;100542.53;1797891;79;21088;-78
2022/06/24 01:40:09;;;;;;;1.92;1.50;;;;;;;25.69;39.94;100532.55;1789543;79;21523;-79
2022/06/24 01:42:35;;;;;;;3.45;1.65;;;;;;;25.68;39.94;100542.88;1777626;80;21056;-79
2022/06/24 01:45:02;;;;;;;2.30;1.30;;;;;;;25.67;39.95;100535.71;1777503;80;20964;-79
2022/06/24 01:47:28;;;;;;;2.70;1.80;;;;;;;25.68;39.98;100537.30;1777496;80;21036;-79
2022/06/24 01:49:55;;;;;;;2.80;1.87;;;;;;;25.68;39.96;100538.70;1777484;80;21990;-79
2022/06/24 01:52:27;;;;;;;2.45;1.45;;;;;;;25.69;39.98;100540.91;1777590;80;21016;-79
2022/06/24 01:54:53;;;;;;;3.30;1.45;;;;;;;25.67;39.99;100540.47;1777323;80;21451;-78
2022/06/24 01:57:20;;;;;;;3.08;1.50;;;;;;;25.68;39.96;100537.88;1777621;80;21003;-79
2022/06/24 01:59:46;;;;;;;2.75;1.67;;;;;;;25.67;39.96;100540.47;1777800;80;21039;-79
2022/06/24 02:02:12;;;;;;;2.50;1.37;;;;;;;25.67;39.98;100532.11;1777317;80;21091;-79
2022/06/24 02:04:39;;;;;;;2.95;1.60;;;;;;;25.67;39.98;100532.92;1777768;80;20993;-79
2022/06/24 02:07:05;;;;;;;4.53;1.87;;;;;;;25.67;39.98;100533.50;1777575;80;21107;-79
2022/06/24 02:13:26;;;;;;;2.77;1.65;;;;;;;25.67;40.01;100533.50;1777305;80;21079;-79
2022/06/24 02:14:44;;;;;;;2.40;1.42;;;;;;;25.66;40.01;100529.91;1777146;80;21140;-79
2022/06/24 02:17:11;;;;;;;3.62;1.67;;;;;;;25.66;40.03;100533.27;1785470;79;21470;-79
2022/06/24 02:19:38;;;;;;;2.20;1.52;;;;;;;25.65;40.02;100528.28;1797899;79;21001;-79
2022/06/24 02:22:04;;;;;;;2.25;1.50;;;;;;;25.66;40.03;100526.30;1797439;79;21005;-79
2022/06/24 02:24:31;;;;;;;2.40;1.57;;;;;;;25.66;40.05;100527.12;1797790;79;21119;-79
2022/06/24 02:26:57;;;;;;;2.72;1.60;;;;;;;25.67;40.05;100522.36;1797925;79;21409;-79
2022/06/24 02:29:24;;;;;;;3.33;1.50;;;;;;;25.66;40.03;100520.73;1797350;79;20977;-79
2022/06/24 02:31:50;;;;;;;2.33;1.60;;;;;;;25.65;40.04;100515.73;1797835;79;20969;-79
2022/06/24 02:34:16;;;;;;;4.22;1.77;;;;;;;25.64;40.07;100515.51;1797610;79;21013;-79
2022/06/24 02:36:43;;;;;;;3.35;1.70;;;;;;;25.65;40.07;100507.96;1797479;79;21052;-80
2022/06/24 02:39:15;;;;;;;2.40;1.57;;;;;;;25.65;40.09;100510.17;1797419;79;21257;-79
2022/06/24 02:41:41;;;;;;;3.55;1.60;;;;;;;25.65;40.12;100509.36;1797749;79;21131;-80
2022/06/24 02:44:08;;;;;;;3.30;1.87;;;;;;;25.65;40.13;100510.17;1797455;79;21605;-79
2022/06/24 02:46:34;;;;;;;3.45;1.50;;;;;;;25.65;40.15;100508.78;1797465;79;21087;-79
2022/06/24 02:49:01;;;;;;;2.20;1.55;;;;;;;25.64;40.15;100505.76;1797598;79;21009;-79
2022/06/24 02:51:27;;;;;;;2.40;1.75;;;;;;;25.64;40.15;100504.94;1797464;79;21158;-79
2022/06/24 02:53:54;;;;;;;3.83;1.65;;;;;;;25.65;40.15;100501.00;1797558;79;21044;-79
2022/06/24 02:56:20;;;;;;;3.08;1.50;;;;;;;25.64;40.14;100496.59;1797687;79;21542;-79
2022/06/24 02:58:47;;;;;;;3.77;1.65;;;;;;;25.64;40.16;100501.58;1797397;79;21022;-79
2022/06/24 03:01:13;;;;;;;3.90;1.52;;;;;;;25.64;40.17;100501.58;1797722;79;21072;-79
2022/06/24 03:03:39;;;;;;;2.35;1.45;;;;;;;25.64;40.19;100508.55;1797700;79;21432;-79
2022/06/24 03:06:06;;;;;;;3.27;1.85;;;;;;;25.63;40.18;100509.70;1797430;79;20993;-79
2022/06/24 03:08:32;;;;;;;2.58;1.50;;;;;;;25.65;40.21;100510.75;1797715;79;21573;-79
2022/06/24 03:10:58;;;;;;;3.50;2.02;;;;;;;25.64;40.21;100509.13;1797891;79;21041;-81
2022/06/24 03:13:25;;;;;;;3.75;1.60;;;;;;;25.64;40.20;100506.34;1797494;79;21179;-79
2022/06/24 03:15:51;;;;;;;2.75;1.40;;;;;;;25.65;40.22;100509.36;1797624;79;21467;-79
2022/06/24 03:18:18;;;;;;;3.00;1.70;;;;;;;25.63;40.20;100508.31;1797670;79;21013;-79
2022/06/24 03:20:45;;;;;;;4.35;1.80;;;;;;;25.64;40.23;100507.73;1797324;79;21072;-81
2022/06/24 03:23:17;;;;;;;2.08;1.35;;;;;;;25.64;40.23;100514.11;1797448;79;21092;-79
2022/06/24 03:25:44;;;;;;;3.10;1.75;;;;;;;25.63;40.23;100508.31;1797661;79;21041;-79
2022/06/24 03:28:10;;;;;;;2.25;1.50;;;;;;;25.64;40.23;100505.76;1797605;79;21177;-79
2022/06/24 03:30:37;;;;;;;3.05;1.50;;;;;;;25.63;40.24;100504.74;1797907;79;21450;-79
2022/06/24 03:33:04;;;;;;;2.77;1.50;;;;;;;25.64;40.23;100516.09;1797797;79;21024;-80
2022/06/24 03:35:30;;;;;;;2.17;1.42;;;;;;;25.63;40.24;100509.70;1797532;79;21076;-79
2022/06/24 03:37:57;;;;;;;3.05;1.57;;;;;;;25.63;40.27;100511.09;1797814;79;21029;-81
2022/06/24 03:40:23;;;;;;;4.12;1.70;;;;;;;25.64;40.27;100514.70;1797828;79;21110;-79
2022/06/24 03:42:50;;;;;;;2.00;1.35;;;;;;;25.64;40.27;100518.87;1797444;79;21452;-79
2022/06/24 03:45:17;;;;;;;3.10;1.45;;;;;;;25.64;40.27;100520.27;1797631;79;21092;-79
2022/06/24 03:47:43;;;;;;;4.33;1.82;;;;;;;25.64;40.27;100523.05;1801728;79;21068;-79
2022/06/24 03:50:10;;;;;;;3.65;1.45;;;;;;;25.63;40.28;100527.81;1797472;79;21080;-79
2022/06/24 03:52:36;;;;;;;3.70;2.00;;;;;;;25.64;40.28;100525.26;1797757;79;21255;-79
2022/06/24 03:55:03;;;;;;;3.62;1.47;;;;;;;25.63;40.28;100523.63;1797679;79;21504;-79
2022/06/24 03:57:29;;;;;;;2.08;1.40;;;;;;;25.65;40.29;100527.47;1797308;79;21084;-78
2022/06/24 03:59:56;;;;;;;4.15;1.82;;;;;;;25.64;40.35;100531.41;1797782;79;21370;-79
2022/06/24 04:02:23;;;;;;;3.60;1.75;;;;;;;25.64;40.34;100524.45;1797678;79;21099;-80
2022/06/24 04:04:55;;;;;;;4.65;1.60;;;;;;;25.64;40.35;100530.83;1797344;79;21139;-79
2022/06/24 04:07:22;;;;;;;4.08;1.75;;;;;;;25.62;40.39;100535.97;1797895;79;20946;-80
2022/06/24 04:09:48;;;;;;;9.60;2.60;;;;;;;25.59;40.38;100535.27;1797723;79;21550;-79
2022/06/24 04:12:15;;;;;;;6.78;2.05;;;;;;;25.56;40.26;100544.35;1797395;79;21068;-80
2022/06/24 04:17:26;;;;;;;6.50;2.22;;;;;;;25.46;40.12;100540.08;1797465;79;21860;-80
2022/06/24 04:19:58;;;;;;;15.08;3.20;;;;;;;25.39;40.19;100544.07;1797184;79;21025;-79
2022/06/24 04:22:25;;;;;;;6.37;2.80;;;;;;;25.34;40.20;100544.32;1797679;79;21107;-80
2022/06/24 04:24:51;;;;;;;19.82;3.70;;;;;;;25.29;40.21;100541.79;1797234;79;21626;-79
2022/06/24 04:27:18;;;;;;;7.87;3.02;;;;;;;25.25;40.23;100546.45;1797657;79;21052;-79
2022/06/24 04:29:44;;;;;;;13.98;3.00;;;;;;;25.21;40.29;100553.09;1798014;79;21149;-79
2022/06/24 04:32:16;;;;;;;5.17;2.58;;;;;;;25.18;40.31;100551.83;1797761;79;21048;-80
2022/06/24 04:34:43;;;;;;;14.10;3.10;;;;;;;25.17;40.32;100557.17;1797833;79;21083;-79
2022/06/24 04:37:09;;;;;;;10.48;4.83;;;;;;;25.17;40.26;100559.14;1798014;79;20966;-79
2022/06/24 04:39:36;;;;;;;11.35;3.72;;;;;;;25.14;40.18;100557.07;1797671;79;21415;-79
2022/06/24 04:42:03;;;;;;;7.55;3.27;;;;;;;25.10;40.17;100551.98;1797843;79;21935;-79
2022/06/24 04:44:29;;;;;;;10.65;3.20;;;;;;;25.06;40.24;100557.45;1797517;79;21529;-79
2022/06/24 04:46:56;;;;;;;11.83;2.85;;;;;;;25.06;40.30;100558.84;1794156;79;21559;-79
2022/06/24 04:49:22;;;;;;;11.65;2.70;;;;;;;25.04;40.39;100561.16;1797624;79;20934;-79
2022/06/24 04:51:55;;;;;;;6.33;2.37;;;;;;;25.03;40.47;100562.92;1801186;78;21546;-79
2022/06/24 04:54:21;;;;;;;6.40;2.20;;;;;;;25.01;40.53;100567.44;1803169;79;21186;-79
2022/06/24 04:56:48;;;;;;;8.40;2.17;;;;;;;24.99;40.57;100560.05;1803460;78;20976;-79
2022/06/24 04:59:14;;;;;;;6.05;2.40;;;;;;;24.98;40.55;100565.38;1803677;79;21079;-80
2022/06/24 05:01:41;;;;;;;5.25;2.27;;;;;;;24.98;40.58;100571.75;1803368;79;20981;-79
2022/06/24 05:04:07;;;;;;;6.83;2.50;;;;;;;24.99;40.60;100570.56;1803636;79;21506;-80
2022/06/24 05:06:33;;;;;;;4.40;2.20;;;;;;;25.01;40.61;100573.01;1803496;78;22422;-79
2022/06/24 05:09:00;;;;;;;10.25;2.47;;;;;;;25.00;40.64;100575.55;1803250;79;21028;-79
2022/06/24 05:11:34;;;;;;;6.83;2.55;;;;;;;25.01;40.63;100575.80;1794651;78;21013;-80
2022/06/24 05:14:00;;;;;;;8.18;2.47;;;;;;;25.01;40.63;100573.82;1783956;79;21077;-79
2022/06/24 05:16:27;;;;;;;6.58;2.58;;;;;;;25.01;40.61;100577.19;1798388;79;21028;-79
2022/06/24 05:18:53;;;;;;;5.00;2.12;;;;;;;25.00;40.66;100584.72;1782423;78;21258;-79
2022/06/24 05:21:19;;;;;;;9.20;2.70;;;;;;;25.04;40.66;100582.64;1800773;79;20924;-80
2022/06/24 05:23:46;;;;;;;5.92;2.60;;;;;;;25.06;40.58;100588.66;1813285;79;21016;-79
2022/06/24 05:26:12;;;;;;;7.10;2.65;;;;;;;25.06;40.58;100583.09;1813183;78;21283;-81
2022/06/24 05:28:39;;;;;;;6.90;2.37;;;;;;;25.08;40.57;100588.52;1803713;78;21023;-80
2022/06/24 05:31:05;;;;;;;10.03;2.45;;;;;;;25.09;40.48;100590.72;1818527;78;21290;-80
2022/06/24 05:33:33;;;;;;;7.72;2.10;;;;;;;25.08;40.42;100586.34;1788585;78;22178;-80
2022/06/24 05:35:59;;;;;;;5.55;2.30;;;;;;;25.09;40.46;100587.36;1802610;78;21035;-80
2022/06/24 05:38:26;;;;;;;5.20;1.82;;;;;;;25.12;40.59;100591.43;1807402;79;21664;-80
2022/06/24 05:40:52;;;;;;;4.20;1.80;;;;;;;25.14;40.65;100595.47;1796488;78;21578;-80
2022/06/24 05:43:19;;;;;;;3.10;1.60;;;;;;;25.15;40.76;100590.72;1796873;79;21988;-82
2022/06/24 05:45:46;;;;;;;7.85;1.70;;;;;;;25.17;40.76;100584.20;1796006;79;21030;-82
2022/06/24 05:48:14;;;;;;;8.90;1.70;;;;;;;25.17;40.82;100586.40;1787091;78;21060;-81
2022/06/24 05:50:42;;;;;;;5.62;1.80;;;;;;;25.21;40.73;100589.28;1785706;79;21068;-80
2022/06/24 05:56:00;;;;;;;6.53;2.05;;;;;;;25.22;40.57;100583.95;1791837;78;21243;-78
2022/06/24 05:58:27;;;;;;;9.38;1.70;;;;;;;25.23;40.48;100591.95;1774894;78;21351;-79
2022/06/24 06:00:57;;;;;;;3.33;1.87;;;;;;;25.24;40.52;100593.58;1786740;79;21041;-79
2022/06/24 06:03:25;;;;;;;4.12;1.75;;;;;;;25.25;40.54;100592.39;1796049;79;21053;-79
2022/06/24 06:05:52;;;;;;;5.08;2.22;;;;;;;25.25;40.47;100599.97;1794226;79;21052;-79
2022/06/24 06:08:18;;;;;;;5.80;2.00;;;;;;;25.25;40.47;100599.97;1791168;79;22448;-78
2022/06/24 06:10:45;;;;;;;5.53;2.05;;;;;;;25.25;40.36;100602.75;1792460;79;21013;-79
2022/06/24 06:13:12;;;;;;;4.87;2.10;;;;;;;25.24;40.21;100602.52;1798630;78;21049;-80
2022/06/24 06:15:45;;;;;;;5.90;2.02;;;;;;;25.23;40.14;100603.09;1802051;77;21633;-81
2022/06/24 06:18:11;;;;;;;5.53;2.10;;;;;;;25.24;40.09;100596.95;1794872;78;21068;-82
2022/06/24 06:20:38;;;;;;;3.15;1.75;;;;;;;25.25;40.10;100603.53;1780149;78;21617;-82
2022/06/24 06:23:04;;;;;;;3.17;1.85;;;;;;;25.28;40.09;100600.64;1800353;78;20910;-82
2022/06/24 06:25:31;;;;;;;3.52;1.82;;;;;;;25.29;40.08;100594.70;1785104;79;21064;-81
2022/06/24 06:27:58;;;;;;;7.08;1.82;;;;;;;25.32;40.01;100605.73;1788892;79;21029;-81
2022/06/24 06:30:24;;;;;;;8.23;1.72;;;;;;;25.34;39.98;100606.17;1799418;79;21044;-81
2022/06/24 06:32:52;;;;;;;4.17;1.60;;;;;;;25.34;39.92;100602.80;1780396;79;21518;-81
2022/06/24 06:35:18;;;;;;;5.03;1.70;;;;;;;25.34;39.85;100602.80;1765984;81;21570;-81
2022/06/24 06:37:45;;;;;;;4.10;1.70;;;;;;;25.34;39.77;100600.02;1783959;78;21111;-80
2022/06/24 06:40:11;;;;;;;5.45;2.25;;;;;;;25.34;39.79;100598.62;1788327;78;21124;-80
2022/06/24 06:42:38;;;;;;;8.20;1.90;;;;;;;25.34;39.78;100597.23;1785248;78;21052;-80
2022/06/24 06:45:05;;;;;;;4.92;1.77;;;;;;;25.35;39.73;100602.23;1795563;78;21452;-81
2022/06/24 06:47:32;;;;;;;8.70;2.00;;;;;;;25.35;39.77;100602.23;1775160;79;21087;-80
2022/06/24 06:49:58;;;;;;;3.77;1.70;;;;;;;25.37;39.77;100598.52;1803099;79;20993;-80
2022/06/24 06:52:25;;;;;;;9.30;2.80;;;;;;;25.38;39.87;100598.72;1813085;78;21051;-80
2022/06/24 06:54:51;;;;;;;5.00;1.80;;;;;;;25.41;39.85;100599.43;1809410;79;21044;-80
2022/06/24 06:57:17;;;;;;;5.85;2.20;;;;;;;25.41;39.80;100599.43;1814926;78;21395;-81
2022/06/24 06:59:44;;;;;;;4.85;2.00;;;;;;;25.42;39.72;100598.23;1798461;78;21076;-81
2022/06/24 07:02:10;;;;;;;5.92;1.80;;;;;;;25.42;39.65;100599.05;1809167;78;21556;-80
2022/06/24 07:04:37;;;;;;;4.12;1.62;;;;;;;25.43;39.56;100598.47;1797710;78;21080;-82
2022/06/24 07:07:04;;;;;;;4.33;1.77;;;;;;;25.45;39.49;100597.55;1802996;78;21055;-80
2022/06/24 07:09:30;;;;;;;4.45;1.98;;;;;;;25.45;39.47;100597.55;1813153;78;21503;-80
2022/06/24 07:12:02;;;;;;;4.97;1.87;;;;;;;25.46;39.46;100600.57;1807197;78;21063;-80
2022/06/24 07:14:29;;;;;;;4.60;1.77;;;;;;;25.46;39.52;100599.96;1806302;79;21072;-80
2022/06/24 07:16:55;;;;;;;4.55;1.77;;;;;;;25.49;39.53;100601.24;1796103;79;21032;-79
2022/06/24 07:19:23;;;;;;;11.68;1.85;;;;;;;25.50;39.52;100596.48;1796777;79;21024;-80
2022/06/24 07:21:49;;;;;;;5.87;2.40;;;;;;;25.52;39.55;100602.49;1816514;78;21739;-80
2022/06/24 07:24:16;;;;;;;3.83;1.90;;;;;;;25.53;39.61;100601.34;1819626;77;21083;-81
2022/06/24 07:26:42;;;;;;;5.55;2.05;;;;;;;25.54;39.54;100590.46;1817528;77;21039;-81
2022/06/24 07:29:09;;;;;;;4.37;1.95;;;;;;;25.55;39.49;100589.27;1821070;78;21073;-80
2022/06/24 07:31:35;;;;;;;6.60;2.17;;;;;;;25.56;39.48;100588.11;1809159;78;21538;-79
2022/06/24 07:34:04;;;;;;;4.28;1.80;;;;;;;25.57;39.43;100584.16;1814025;78;21526;-81
2022/06/24 07:36:30;;;;;;;3.47;2.00;;;;;;;25.57;39.40;100580.80;1815740;78;21114;-79
2022/06/24 07:38:56;;;;;;;4.20;2.05;;;;;;;25.57;39.29;100579.41;1812542;78;21118;-81
2022/06/24 07:41:23;;;;;;;4.05;2.10;;;;;;;25.59;39.32;100579.06;1813269;78;21574;-79
2022/06/24 07:43:50;;;;;;;3.42;1.90;;;;;;;25.60;39.37;100580.66;1815310;77;21687;-79
2022/06/24 07:46:17;;;;;;;4.87;1.85;;;;;;;25.62;39.31;100578.34;1815816;77;21141;-80
2022/06/24 07:48:43;;;;;;;5.37;2.10;;;;;;;25.63;39.27;100573.00;1803293;79;21060;-81
2022/06/24 07:51:15;;;;;;;5.87;2.10;;;;;;;25.63;39.24;100568.21;1796003;79;21721;-82
2022/06/24 07:53:43;;;;;;;8.30;3.77;;;;;;;25.64;39.17;100567.05;1797263;79;21087;-80
2022/06/24 07:58:54;;;;;;;3.37;2.00;;;;;;;25.64;39.13;100563.45;1768018;81;21090;-82
2022/06/24 08:01:21;;;;;;;4.83;2.10;;;;;;;25.66;39.23;100565.31;1783189;79;21374;-80
2022/06/24 08:03:47;;;;;;;6.87;2.52;;;;;;;25.67;39.29;100566.36;1779798;79;21057;-81
2022/06/24 08:06:14;;;;;;;4.05;2.50;;;;;;;25.69;39.40;100559.02;1789463;78;21081;-81
2022/06/24 08:08:46;;;;;;;4.65;2.90;;;;;;;25.71;39.55;100562.27;1794336;79;21456;-79
2022/06/24 08:11:13;;;;;;;5.55;2.65;;;;;;;25.72;39.71;100559.10;1799796;78;21940;-79
2022/06/24 08:13:40;;;;;;;6.20;3.08;;;;;;;25.73;39.74;100566.30;1796982;78;21049;-79
2022/06/24 08:16:06;;;;;;;6.42;2.35;;;;;;;25.73;39.83;100560.73;1803591;78;21625;-80
2022/06/24 08:18:33;;;;;;;6.85;2.50;;;;;;;25.75;39.90;100559.80;1788993;78;21029;-81
2022/06/24 08:20:59;;;;;;;4.37;2.33;;;;;;;25.76;39.94;100559.19;1803931;78;21021;-79
2022/06/24 08:23:26;;;;;;;5.03;1.95;;;;;;;25.77;39.96;100560.81;1791887;79;21151;-80
2022/06/24 08:25:52;;;;;;;5.85;2.40;;;;;;;25.78;39.83;100556.87;1795180;78;20949;-79
2022/06/24 08:28:19;;;;;;;3.12;2.33;;;;;;;25.78;39.70;100561.05;1793353;78;21052;-80
2022/06/24 08:30:45;;;;;;;3.98;2.40;;;;;;;25.78;39.56;100553.50;1802662;78;21379;-80
2022/06/24 08:33:12;;;;;;;4.47;2.47;;;;;;;25.80;39.62;100569.88;1798199;78;21058;-77
2022/06/24 08:35:38;;;;;;;6.65;2.52;;;;;;;25.80;39.75;100560.91;1800573;79;21052;-79
2022/06/24 08:38:05;;;;;;;5.22;2.22;;;;;;;25.81;39.86;100558.34;1804917;78;21032;-80
2022/06/24 08:40:31;;;;;;;4.40;2.17;;;;;;;25.82;39.86;100559.16;1795103;78;21044;-82
2022/06/24 08:42:59;;;;;;;6.20;2.80;;;;;;;25.83;39.86;100560.20;1790838;79;20966;-83
2022/06/24 08:45:26;;;;;;;4.83;2.37;;;;;;;25.82;39.81;100557.19;1775938;79;21125;-79
2022/06/24 08:47:52;;;;;;;5.15;2.10;;;;;;;25.84;39.69;100556.23;1795787;79;21477;-83
2022/06/24 08:50:19;;;;;;;5.80;2.30;;;;;;;25.84;39.50;100561.80;1809684;78;21067;-82
2022/06/24 08:52:50;;;;;;;10.55;2.25;;;;;;;25.84;39.13;100552.05;1817547;77;21028;-81
2022/06/24 08:55:18;;;;;;;5.15;2.27;;;;;;;25.85;39.02;100546.70;1817851;78;21719;-80
2022/06/24 08:57:47;;;;;;;5.92;2.27;;;;;;;25.86;39.02;100543.34;1816269;78;21545;-81
2022/06/24 09:00:14;;;;;;;3.20;2.40;;;;;;;25.87;38.95;100548.56;1765773;80;21096;-81
2022/06/24 09:02:41;;;;;;;3.00;2.65;;;;;;;25.88;38.90;100549.37;1739517;81;21123;-80
2022/06/24 09:05:12;;;;;;;4.62;3.00;;;;;;;25.89;38.76;100545.40;1754604;81;21515;-80
2022/06/24 09:07:38;;;;;;;4.60;2.77;;;;;;;25.89;38.85;100543.42;1751172;80;21515;-80
2022/06/24 09:10:09;;;;;;;6.40;2.20;;;;;;;25.89;38.85;100547.61;1727535;81;21084;-80
2022/06/24 09:12:40;;;;;;;;;;;;;;;25.90;38.55;100544.23;1721192;82;21782;-80
2022/06/24 09:15:07;;;;;;;;;;;;;;;25.90;38.28;100540.87;1737223;81;20198;-81
2022/06/24 09:17:34;;;;;;;4.80;2.20;;;;;;;25.90;38.41;100545.05;1749897;81;20194;-81
2022/06/24 09:20:08;;;;;;;3.20;2.17;;;;;;;25.88;38.41;100541.02;1737765;81;21116;-79
2022/06/24 09:22:34;;;;;;;4.42;1.90;;;;;;;25.89;38.29;100546.79;1735498;80;21037;-80
2022/06/24 09:25:01;;;;;;;5.00;2.12;;;;;;;25.88;38.17;100550.19;1750205;81;21103;-81
2022/06/24 09:27:28;;;;;;;4.15;2.00;;;;;;;25.88;38.10;100550.77;1750511;81;21056;-80
2022/06/24 09:29:54;;;;;;;4.92;2.10;;;;;;;25.86;38.15;100551.12;1736443;81;21083;-79
2022/06/24 09:32:21;;;;;;;5.12;1.98;;;;;;;25.87;38.24;100549.14;1748969;81;21084;-79
2022/06/24 09:35:05;;;;;;;7.78;3.05;;;;;;;25.87;38.28;100544.97;1739535;81;21134;-78
2022/06/24 09:37:51;;;;;;;5.85;2.08;;;;;;;25.89;38.31;100542.61;1737651;81;21122;-80
2022/06/24 09:40:26;;;;;;;6.28;2.30;;;;;;;25.91;38.11;100534.12;1736371;81;21064;-78
2022/06/24 09:43:00;;;;;;;3.92;2.05;;;;;;;25.93;38.00;100530.19;1757141;81;21535;-80
2022/06/24 09:45:45;;;;;;;7.05;2.17;;;;;;;25.93;37.96;100534.36;1738958;81;21167;-79
2022/06/24 09:48:32;;;;;;;4.67;2.20;;;;;;;25.93;37.98;100537.15;1734992;81;21080;-80
2022/06/24 09:51:04;;;;;;;6.00;2.22;;;;;;;25.92;37.97;100536.34;1737093;81;21197;-78
2022/06/24 09:53:35;;;;;;;2.67;2.00;;;;;;;25.93;37.92;100534.36;1731642;82;21044;-81
2022/06/24 09:56:02;;;;;;;3.75;2.10;;;;;;;25.91;37.91;100536.92;1737318;82;21040;-80
2022/06/24 09:58:29;;;;;;;5.20;2.40;;;;;;;25.92;37.94;100532.16;1729890;80;21083;-80
2022/06/24 10:00:56;;;;;;;3.40;1.98;;;;;;;25.93;37.91;100520.42;1755307;81;21131;-80
2022/06/24 10:03:22;;;;;;;10.68;2.35;;;;;;;25.93;37.97;100530.96;1757248;80;21620;-79
2022/06/24 10:05:50;;;;;;;4.80;2.22;;;;;;;25.95;38.00;100527.83;1770850;80;21032;-79
2022/06/24 10:08:20;;;;;;;3.17;1.87;;;;;;;25.95;38.00;100527.25;1739498;82;21073;-79
2022/06/24 10:10:53;;;;;;;3.77;2.40;;;;;;;25.98;37.98;100520.12;1757531;80;21234;-79
2022/06/24 10:13:28;;;;;;;5.85;2.85;;;;;;;25.98;37.95;100515.36;1757022;80;21061;-79
2022/06/24 10:15:57;;;;;;;3.72;2.20;;;;;;;26.00;38.07;100517.22;1766781;80;21625;-82
2022/06/24 10:18:32;;;;;;;3.00;1.82;;;;;;;26.02;37.98;100512.66;1813550;77;21063;-79
2022/06/24 10:21:04;;;;;;;6.90;1.98;;;;;;;26.02;37.89;100505.69;1753669;80;21128;-80
2022/06/24 10:23:51;;;;;;;3.15;1.65;;;;;;;26.03;37.80;100510.10;1807162;78;21052;-81
2022/06/24 10:26:24;;;;;;;3.45;1.70;;;;;;;26.04;37.64;100508.94;1791947;79;21043;-79
2022/06/24 10:29:05;;;;;;;2.25;1.75;;;;;;;26.03;37.40;100506.73;1812796;79;21091;-81
2022/06/24 10:31:50;;;;;;;2.58;1.70;;;;;;;26.05;37.27;100507.20;1814390;77;21549;-80
2022/06/24 10:34:33;;;;;;;4.10;1.85;;;;;;;26.07;37.27;100506.23;1807189;78;21053;-80
2022/06/24 10:37:21;;;;;;;3.05;1.52;;;;;;;26.08;37.29;100499.49;1803349;78;21080;-79
2022/06/24 10:39:53;;;;;;;3.90;1.90;;;;;;;26.09;37.22;100501.12;1797762;78;21087;-79
2022/06/24 10:42:21;;;;;;;2.47;2.02;;;;;;;26.09;37.09;100509.48;1785701;78;21605;-79
2022/06/24 10:44:57;;;;;;;3.35;1.62;;;;;;;26.10;37.19;100504.69;1809714;78;21087;-81
2022/06/24 10:47:40;;;;;;;4.33;2.15;;;;;;;26.09;37.13;100503.09;1808738;78;21052;-78
2022/06/24 10:50:09;;;;;;;3.02;1.75;;;;;;;26.08;37.06;100502.28;1800360;78;21088;-80
2022/06/24 10:52:51;;;;;;;2.62;1.57;;;;;;;26.08;36.99;100498.68;1803821;78;21044;-80
2022/06/24 10:55:31;;;;;;;2.42;1.62;;;;;;;26.07;36.89;100498.45;1801998;78;21131;-80
2022/06/24 10:58:00;;;;;;;2.13;1.53;;;;;;;26.07;36.86;100495.66;1807450;78;20969;-81
2022/06/24 11:00:42;;;;;;;4.05;1.67;;;;;;;26.06;36.79;100487.87;1804124;77;21514;-81
2022/06/24 11:03:12;;;;;;;2.30;1.47;;;;;;;26.07;36.67;100488.69;1777532;79;21020;-79
2022/06/24 11:05:40;;;;;;;;;;;;;;;26.07;36.46;100486.72;1802104;78;21079;-81
2022/06/24 11:08:13;;;;;;;2.95;1.05;;;;;;;26.08;36.37;100488.34;1795600;77;21118;-81
2022/06/24 11:10:47;;;;;;;4.55;1.37;;;;;;;26.08;36.42;100491.13;1760490;78;21059;-83
2022/06/24 11:13:13;;;;;;;3.00;1.70;;;;;;;26.09;36.39;100490.55;1806030;78;21075;-82
2022/06/24 11:15:43;;;;;;;3.95;1.35;;;;;;;26.08;36.42;100482.77;1806511;78;21007;-81
2022/06/24 11:18:21;;;;;;;2.60;1.37;;;;;;;26.10;36.46;100483.77;1807569;78;21590;-82
2022/06/24 11:20:55;;;;;;;3.77;1.30;;;;;;;26.10;36.32;100483.19;1814033;78;21100;-81
2022/06/24 11:23:24;;;;;;;2.65;1.40;;;;;;;26.11;36.29;100490.39;1802669;78;20949;-82
2022/06/24 11:26:03;;;;;;;2.05;1.60;;;;;;;26.11;36.34;100479.82;1801609;79;21280;-85
2022/06/24 11:28:32;;;;;;;2.52;1.50;;;;;;;26.11;36.40;100481.22;1804070;79;21041;-80
2022/06/24 11:31:22;;;;;;;3.83;1.80;;;;;;;26.11;36.41;100479.82;1792745;79;21118;-82
2022/06/24 11:33:53;;;;;;;2.42;1.75;;;;;;;26.12;36.55;100480.05;1799797;78;23013;-80
2022/06/24 11:36:21;;;;;;;5.58;1.62;;;;;;;26.11;36.78;100473.66;1801406;78;20996;-79
2022/06/24 11:38:53;;;;;;;3.00;1.60;;;;;;;26.12;36.74;100473.89;1805638;79;21087;-80
2022/06/24 11:41:31;;;;;;;3.90;1.60;;;;;;;26.12;36.66;100473.89;1763355;79;21040;-81
2022/06/24 11:43:58;;;;;;;2.50;1.72;;;;;;;26.13;36.63;100477.50;1807189;78;21013;-79